Time;durP1;ratioP1;P1;durP2;ratioP2;P2;SDS_P1;SDS_P2;PMS_P1;PMS_P2;Temp;Humidity;BMP_temperature;BMP_pressure;BME280_temperature;BME280_humidity;BME280_pressure;Samples;Min_cycle;Max_cycle;Signal;HPM_P1;HPM_P2
2022/05/31 00:00:16;;;;;;;10.15;6.28;;;13.00;99.90;;;;;;5093058;28;20055;-74
2022/05/31 00:02:42;;;;;;;9.70;6.72;;;13.00;99.90;;;;;;5085736;28;20519;-74
2022/05/31 00:05:09;;;;;;;12.63;6.90;;;13.10;99.90;;;;;;5072335;28;20281;-74
2022/05/31 00:07:37;;;;;;;10.52;6.13;;;13.00;99.90;;;;;;5076111;28;20031;-74
2022/05/31 00:10:04;;;;;;;13.32;6.68;;;12.90;99.90;;;;;;5090878;28;20063;-74
2022/05/31 00:12:30;;;;;;;13.68;7.72;;;13.00;99.90;;;;;;5078566;28;20032;-74
2022/05/31 00:14:56;;;;;;;18.45;6.75;;;12.90;99.90;;;;;;5093012;28;20024;-76
2022/05/31 00:17:21;;;;;;;12.63;6.38;;;12.90;99.90;;;;;;5092925;28;20478;-76
2022/05/31 00:19:47;;;;;;;9.93;6.35;;;12.60;99.90;;;;;;5084692;28;20392;-74
2022/05/31 00:22:23;;;;;;;10.10;6.40;;;12.50;99.90;;;;;;5085297;28;20032;-76
2022/05/31 00:24:49;;;;;;;15.52;6.85;;;12.50;99.90;;;;;;5092706;28;20065;-75
2022/05/31 00:27:19;;;;;;;12.63;6.00;;;12.30;99.90;;;;;;5092917;28;20024;-74
2022/05/31 00:29:47;;;;;;;10.45;6.03;;;12.20;99.90;;;;;;5092747;28;20118;-74
2022/05/31 00:32:15;;;;;;;11.57;6.63;;;12.40;99.90;;;;;;5092523;28;20089;-74
2022/05/31 00:34:44;;;;;;;15.63;6.40;;;12.60;99.90;;;;;;5091315;28;20046;-74
2022/05/31 00:37:11;;;;;;;13.30;6.40;;;12.50;99.90;;;;;;5082991;28;20112;-74
2022/05/31 00:39:37;;;;;;;11.48;6.93;;;12.50;99.90;;;;;;5086922;28;20036;-74
2022/05/31 00:42:14;;;;;;;10.10;5.85;;;12.40;99.90;;;;;;5092594;28;20024;-74
2022/05/31 00:44:40;;;;;;;9.88;5.65;;;12.40;99.90;;;;;;5091242;28;20036;-74
2022/05/31 00:47:13;;;;;;;11.45;5.85;;;12.20;99.90;;;;;;5094348;28;20020;-74
2022/05/31 00:49:44;;;;;;;9.55;6.43;;;12.40;99.90;;;;;;5085373;28;20044;-74
2022/05/31 00:52:12;;;;;;;12.63;6.60;;;12.40;99.90;;;;;;5083301;28;20115;-74
2022/05/31 00:55:02;;;;;;;12.57;5.68;;;12.60;99.90;;;;;;5095647;28;20035;-74
2022/05/31 00:57:29;;;;;;;10.05;5.93;;;12.60;99.90;;;;;;5080384;28;20111;-74
2022/05/31 01:00:03;;;;;;;9.82;6.57;;;12.70;99.90;;;;;;5089778;28;20453;-74
2022/05/31 01:02:29;;;;;;;15.88;6.75;;;12.70;99.90;;;;;;5096304;28;20036;-74
2022/05/31 01:05:06;;;;;;;13.98;7.15;;;12.60;99.90;;;;;;5096083;28;20388;-74
2022/05/31 01:07:32;;;;;;;12.30;7.10;;;12.40;99.90;;;;;;5095358;28;20040;-74
2022/05/31 01:09:58;;;;;;;16.75;6.40;;;12.40;99.90;;;;;;5095246;28;20032;-74
2022/05/31 01:12:58;;;;;;;17.30;6.97;;;12.30;99.90;;;;;;5096198;28;20631;-74
2022/05/31 01:16:09;;;;;;;10.75;6.25;;;12.50;99.90;;;;;;5073380;28;20684;-74
2022/05/31 01:19:55;;;;;;;10.93;6.80;;;12.70;99.90;;;;;;5072088;28;20509;-74
2022/05/31 01:21:58;;;;;;;11.60;6.32;;;12.70;99.90;;;;;;5073589;28;20287;-74
2022/05/31 01:25:04;;;;;;;10.10;6.55;;;12.50;99.90;;;;;;5081701;28;20048;-74
2022/05/31 01:27:41;;;;;;;11.85;6.10;;;12.60;99.90;;;;;;5093660;28;20488;-74
2022/05/31 01:30:09;;;;;;;13.88;6.72;;;12.60;99.90;;;;;;5095790;28;20059;-74
2022/05/31 01:32:57;;;;;;;10.50;6.30;;;12.80;99.90;;;;;;5095956;28;20097;-74
2022/05/31 01:35:27;;;;;;;11.20;6.80;;;12.80;99.90;;;;;;5095584;28;20055;-74
2022/05/31 01:38:16;;;;;;;16.00;7.20;;;12.80;99.90;;;;;;5094440;28;20024;-74
2022/05/31 01:40:52;;;;;;;16.30;6.60;;;12.50;99.90;;;;;;5087189;28;20131;-74
2022/05/31 01:43:18;;;;;;;10.95;5.93;;;12.50;99.90;;;;;;5077642;28;20475;-74
2022/05/31 01:45:52;;;;;;;10.80;5.95;;;12.30;99.90;;;;;;5087904;28;20115;-74
2022/05/31 01:48:18;;;;;;;13.88;6.78;;;12.10;99.90;;;;;;5095541;28;20043;-74
2022/05/31 01:50:45;;;;;;;13.43;6.80;;;12.00;99.90;;;;;;5087455;28;20392;-74
2022/05/31 01:53:13;;;;;;;11.80;6.90;;;12.20;99.90;;;;;;5093927;28;20031;-74
2022/05/31 01:55:41;;;;;;;10.60;6.93;;;12.20;99.90;;;;;;5094342;28;20036;-74
2022/05/31 01:58:17;;;;;;;10.55;6.38;;;12.50;99.90;;;;;;5092597;28;20392;-74
2022/05/31 02:00:44;;;;;;;11.63;6.30;;;12.50;99.90;;;;;;5093969;28;20075;-74
2022/05/31 02:03:13;;;;;;;11.10;7.05;;;12.40;99.90;;;;;;5093894;28;20020;-74
2022/05/31 02:05:53;;;;;;;12.05;6.78;;;12.40;99.90;;;;;;5095091;28;20028;-74
2022/05/31 02:08:24;;;;;;;7.03;6.28;;;12.40;99.90;;;;;;5093918;28;20461;-74
2022/05/31 02:10:50;;;;;;;15.85;7.82;;;12.60;99.90;;;;;;5088274;28;20024;-74
2022/05/31 02:13:18;;;;;;;9.32;6.93;;;12.70;99.90;;;;;;5085413;28;20511;-74
2022/05/31 02:15:44;;;;;;;12.30;6.72;;;12.80;99.90;;;;;;5094771;28;20028;-74
2022/05/31 02:18:16;;;;;;;12.32;6.45;;;12.60;99.90;;;;;;5095306;28;20071;-74
2022/05/31 02:20:48;;;;;;;13.10;7.00;;;12.70;99.90;;;;;;5094848;28;20429;-74
2022/05/31 02:23:14;;;;;;;11.50;6.07;;;12.80;99.90;;;;;;5093816;28;20076;-74
2022/05/31 02:25:40;;;;;;;8.85;5.95;;;12.70;99.90;;;;;;5094649;28;20046;-74
2022/05/31 02:28:06;;;;;;;11.70;6.47;;;12.60;99.90;;;;;;5093397;28;20020;-74
2022/05/31 02:30:31;;;;;;;11.15;6.32;;;12.70;99.90;;;;;;5093645;28;20035;-74
2022/05/31 02:32:57;;;;;;;12.82;6.75;;;12.70;99.90;;;;;;5093473;28;20023;-74
2022/05/31 02:35:23;;;;;;;10.88;6.43;;;12.60;99.90;;;;;;5094679;28;20028;-74
2022/05/31 02:37:49;;;;;;;15.32;7.25;;;12.80;99.90;;;;;;5092894;28;20039;-73
2022/05/31 02:40:16;;;;;;;14.10;7.30;;;12.80;99.90;;;;;;5094686;28;20031;-74
2022/05/31 02:42:42;;;;;;;11.48;6.53;;;12.70;99.90;;;;;;5094296;28;20412;-73
2022/05/31 02:45:09;;;;;;;9.57;6.82;;;12.80;99.90;;;;;;5093125;28;20040;-76
2022/05/31 02:47:37;;;;;;;14.85;7.30;;;12.60;99.90;;;;;;5094824;28;20040;-76
2022/05/31 02:50:05;;;;;;;12.90;7.00;;;12.60;99.90;;;;;;5069370;28;20044;-76
2022/05/31 02:52:32;;;;;;;9.70;6.68;;;12.40;99.90;;;;;;5093196;28;20036;-76
2022/05/31 02:54:58;;;;;;;9.32;7.05;;;12.50;99.90;;;;;;5092893;28;20024;-74
2022/05/31 02:57:24;;;;;;;13.13;7.53;;;12.50;99.90;;;;;;5094318;28;20062;-74
2022/05/31 03:00:10;;;;;;;9.30;7.45;;;12.50;99.90;;;;;;5094120;28;20039;-74
2022/05/31 03:02:55;;;;;;;13.18;6.80;;;11.90;99.90;;;;;;5093938;28;20155;-74
2022/05/31 03:05:43;;;;;;;12.85;7.18;;;12.00;99.90;;;;;;5083373;28;20071;-74
2022/05/31 03:08:32;;;;;;;14.32;6.88;;;12.30;99.90;;;;;;5093749;28;20032;-74
2022/05/31 03:11:14;;;;;;;10.50;7.13;;;12.50;99.90;;;;;;5084410;28;20043;-74
2022/05/31 03:13:42;;;;;;;10.00;7.22;;;12.50;99.90;;;;;;5087327;28;20024;-74
2022/05/31 03:16:10;;;;;;;13.40;7.22;;;12.40;99.90;;;;;;5075936;28;20024;-74
2022/05/31 03:18:42;;;;;;;12.38;7.78;;;12.50;99.90;;;;;;5092980;28;20426;-74
2022/05/31 03:21:14;;;;;;;12.57;7.20;;;12.50;99.90;;;;;;5093856;28;20281;-74
2022/05/31 03:23:46;;;;;;;30.77;7.93;;;12.40;99.90;;;;;;5092517;28;20059;-74
2022/05/31 03:26:14;;;;;;;15.50;7.22;;;12.50;99.90;;;;;;5092053;28;20027;-74
2022/05/31 03:28:40;;;;;;;13.02;7.63;;;12.40;99.90;;;;;;5092732;28;20387;-74
2022/05/31 03:31:08;;;;;;;11.93;7.53;;;12.50;99.90;;;;;;5092175;28;20028;-74
2022/05/31 03:33:34;;;;;;;14.77;7.35;;;12.40;99.90;;;;;;5093754;28;20071;-74
2022/05/31 03:36:00;;;;;;;12.52;7.47;;;12.50;99.90;;;;;;5091889;28;20032;-74
2022/05/31 03:38:32;;;;;;;11.23;6.75;;;12.50;99.90;;;;;;5092340;28;20024;-73
2022/05/31 03:41:00;;;;;;;15.70;7.47;;;12.60;99.90;;;;;;5091900;28;20496;-74
2022/05/31 03:43:41;;;;;;;10.15;7.15;;;12.50;99.90;;;;;;5092190;28;20032;-74
2022/05/31 03:46:27;;;;;;;12.70;7.90;;;12.50;99.90;;;;;;5071521;28;20052;-74
2022/05/31 03:49:11;;;;;;;17.00;7.40;;;12.60;99.90;;;;;;5087257;28;20031;-74
2022/05/31 03:51:41;;;;;;;8.95;6.50;;;12.50;99.90;;;;;;5091703;28;20024;-74
2022/05/31 03:54:20;;;;;;;13.98;7.57;;;12.40;99.90;;;;;;5092601;28;20522;-74
2022/05/31 03:57:05;;;;;;;15.25;6.85;;;12.40;99.90;;;;;;5080630;28;20036;-74
2022/05/31 03:59:37;;;;;;;15.15;7.07;;;12.30;99.90;;;;;;5091832;28;20089;-74
2022/05/31 04:02:04;;;;;;;11.40;7.30;;;12.10;99.90;;;;;;5091861;28;20031;-74
2022/05/31 04:04:30;;;;;;;17.63;7.68;;;12.30;99.90;;;;;;5092919;28;20047;-74
2022/05/31 04:06:56;;;;;;;15.05;6.93;;;12.40;99.90;;;;;;5091610;28;20031;-74
2022/05/31 04:09:21;;;;;;;13.43;7.45;;;12.60;99.90;;;;;;5093180;28;20038;-74
2022/05/31 04:11:47;;;;;;;14.93;7.75;;;12.70;99.90;;;;;;5077585;28;20099;-74
2022/05/31 04:14:28;;;;;;;16.02;7.82;;;12.60;99.90;;;;;;5079070;28;20051;-74
2022/05/31 04:17:01;;;;;;;10.32;7.80;;;12.60;99.90;;;;;;5091272;28;20085;-74
2022/05/31 04:19:26;;;;;;;11.18;6.53;;;12.50;99.90;;;;;;5091627;28;20032;-74
2022/05/31 04:21:52;;;;;;;14.13;7.63;;;12.60;99.90;;;;;;5090725;28;20125;-74
2022/05/31 04:24:21;;;;;;;13.88;7.47;;;12.90;99.90;;;;;;5091245;28;20036;-74
2022/05/31 04:27:07;;;;;;;16.67;7.47;;;13.00;99.90;;;;;;5092601;28;20043;-74
2022/05/31 04:29:51;;;;;;;11.98;7.57;;;12.90;99.90;;;;;;5080918;28;20047;-74
2022/05/31 04:32:43;;;;;;;;;;;13.10;99.90;;;;;;5075217;28;20068;-74
2022/05/31 04:35:15;;;;;;;22.08;7.55;;;13.10;99.90;;;;;;5091484;28;19912;-74
2022/05/31 04:37:42;;;;;;;13.45;7.25;;;13.10;99.90;;;;;;5091143;28;20399;-74
2022/05/31 04:40:08;;;;;;;19.52;7.90;;;13.30;99.90;;;;;;5092807;28;20036;-74
2022/05/31 04:42:42;;;;;;;16.45;7.07;;;13.30;99.90;;;;;;5092555;28;20468;-74
2022/05/31 04:45:09;;;;;;;13.35;7.22;;;13.30;99.90;;;;;;5091361;28;20028;-74
2022/05/31 04:47:37;;;;;;;10.63;7.05;;;13.30;99.90;;;;;;5090973;28;20031;-74
2022/05/31 04:50:04;;;;;;;11.35;7.28;;;13.40;99.90;;;;;;5084344;28;20125;-74
2022/05/31 04:52:33;;;;;;;14.95;7.50;;;13.30;99.90;;;;;;5091285;28;20483;-74
2022/05/31 04:55:00;;;;;;;15.80;8.32;;;13.30;99.90;;;;;;5090920;28;20032;-74
2022/05/31 04:57:35;;;;;;;16.10;7.45;;;13.20;99.90;;;;;;5091270;28;20036;-74
2022/05/31 05:00:04;;;;;;;13.32;7.13;;;13.10;99.90;;;;;;5090934;28;20028;-74
2022/05/31 05:02:34;;;;;;;;;;;13.30;99.90;;;;;;5091574;28;20115;-74
2022/05/31 05:05:07;;;;;;;15.53;7.53;;;13.50;99.90;;;;;;5090716;28;19916;-74
2022/05/31 05:07:45;;;;;;;11.73;6.75;;;13.50;99.90;;;;;;5090816;28;20407;-74
2022/05/31 05:10:11;;;;;;;15.82;7.47;;;13.70;99.90;;;;;;5090543;28;20024;-74
2022/05/31 05:12:41;;;;;;;14.65;6.85;;;14.00;99.90;;;;;;5077635;28;20101;-74
2022/05/31 05:15:27;;;;;;;19.08;7.45;;;14.20;99.90;;;;;;5092330;28;20036;-74
2022/05/31 05:17:53;;;;;;;12.63;7.43;;;14.10;99.90;;;;;;5090797;28;20089;-74
2022/05/31 05:20:18;;;;;;;21.35;7.53;;;14.00;99.90;;;;;;5090925;28;20059;-73
2022/05/31 05:22:48;;;;;;;19.65;7.53;;;13.90;99.90;;;;;;5090632;28;20031;-74
2022/05/31 05:25:15;;;;;;;15.93;7.43;;;13.90;99.90;;;;;;5091082;28;20085;-74
2022/05/31 05:27:52;;;;;;;11.70;7.50;;;14.00;99.90;;;;;;5090752;28;20482;-74
2022/05/31 05:30:39;;;;;;;15.90;6.40;;;13.90;99.90;;;;;;5091037;28;20507;-74
2022/05/31 05:33:25;;;;;;;15.30;7.38;;;13.50;99.90;;;;;;5079538;28;20047;-74
2022/05/31 05:36:30;;;;;;;16.63;7.88;;;13.20;99.90;;;;;;5090260;28;20044;-74
2022/05/31 05:38:56;;;;;;;16.02;7.25;;;13.40;99.90;;;;;;5094447;28;20051;-73
2022/05/31 05:41:53;;;;;;;14.07;7.68;;;13.60;99.90;;;;;;5095545;28;20130;-74
2022/05/31 05:44:39;;;;;;;24.27;7.00;;;13.90;99.90;;;;;;5095458;28;20052;-74
2022/05/31 05:47:09;;;;;;;16.55;7.30;;;14.00;99.90;;;;;;5094413;28;20051;-74
2022/05/31 05:49:35;;;;;;;14.48;7.53;;;14.30;99.90;;;;;;5087577;28;20813;-74
2022/05/31 05:52:17;;;;;;;13.20;7.18;;;14.40;99.90;;;;;;5078369;28;20027;-74
2022/05/31 05:55:04;;;;;;;15.43;7.47;;;14.60;99.90;;;;;;5074617;28;20043;-74
2022/05/31 05:58:08;;;;;;;14.25;7.90;;;14.40;99.90;;;;;;5039206;28;20034;-74
2022/05/31 06:00:53;;;;;;;16.85;7.05;;;14.40;99.90;;;;;;5080011;28;20039;-73
2022/05/31 06:03:32;;;;;;;13.77;7.32;;;14.20;99.90;;;;;;5083690;28;20032;-76
2022/05/31 06:06:04;;;;;;;16.88;7.55;;;14.20;99.90;;;;;;5076270;28;20032;-73
2022/05/31 06:08:38;;;;;;;19.05;6.63;;;14.40;99.90;;;;;;5077817;28;20040;-75
2022/05/31 06:11:19;;;;;;;15.27;6.90;;;14.40;99.90;;;;;;5102166;28;20050;-76
2022/05/31 06:14:00;;;;;;;22.00;7.20;;;14.40;99.90;;;;;;5091971;28;20032;-73
2022/05/31 06:16:31;;;;;;;21.98;7.03;;;14.40;99.90;;;;;;5090575;28;20044;-75
2022/05/31 06:19:11;;;;;;;12.88;7.60;;;14.20;99.90;;;;;;5085143;28;20508;-75
2022/05/31 06:21:37;;;;;;;17.13;7.68;;;14.10;99.90;;;;;;5072312;28;20025;-76
2022/05/31 06:24:14;;;;;;;15.85;6.68;;;14.20;99.90;;;;;;5061677;28;20043;-75
2022/05/31 06:26:40;;;;;;;18.42;7.97;;;14.30;99.90;;;;;;5086303;28;20020;-75
2022/05/31 06:29:06;;;;;;;23.50;7.88;;;14.40;99.90;;;;;;5090360;28;20532;-75
2022/05/31 06:31:32;;;;;;;17.65;7.78;;;14.20;99.90;;;;;;5076010;28;20028;-75
2022/05/31 06:34:00;;;;;;;19.67;8.18;;;14.20;99.90;;;;;;5088364;28;20021;-75
2022/05/31 06:36:46;;;;;;;44.92;8.27;;;14.40;99.90;;;;;;5090019;28;20035;-73
2022/05/31 06:39:11;;;;;;;30.00;9.13;;;14.20;99.90;;;;;;5072580;28;20033;-75
2022/05/31 06:41:37;;;;;;;27.80;8.48;;;14.30;99.90;;;;;;5079187;28;20099;-75
2022/05/31 06:44:06;;;;;;;26.80;9.25;;;14.40;99.90;;;;;;5074344;28;20048;-75
2022/05/31 06:46:50;;;;;;;25.05;9.70;;;14.30;99.90;;;;;;5084316;28;20042;-75
2022/05/31 06:49:41;;;;;;;28.27;9.65;;;14.50;99.90;;;;;;5080961;28;20492;-75
2022/05/31 06:59:19;;;;;;;23.30;10.15;;;15.20;99.90;;;;;;5072618;28;20489;-75
2022/05/31 07:01:47;;;;;;;35.17;9.85;;;15.50;99.90;;;;;;5072458;28;20021;-75
2022/05/31 07:04:14;;;;;;;24.30;9.40;;;15.80;99.90;;;;;;5073593;28;20115;-75
2022/05/31 07:06:40;;;;;;;27.88;9.82;;;16.10;99.90;;;;;;5073859;28;20099;-75
2022/05/31 07:09:35;;;;;;;31.35;8.38;;;16.30;99.90;;;;;;5055741;28;20140;-75
2022/05/31 07:12:14;;;;;;;17.30;8.70;;;16.20;99.90;;;;;;5076462;28;20492;-75
2022/05/31 07:14:59;;;;;;;22.70;9.10;;;16.10;99.90;;;;;;5093070;28;20101;-74
2022/05/31 07:17:46;;;;;;;14.90;7.80;;;15.90;99.90;;;;;;5082452;28;20517;-75
2022/05/31 07:20:13;;;;;;;18.17;8.07;;;16.00;99.90;;;;;;5093593;28;20128;-75
2022/05/31 07:22:39;;;;;;;13.38;8.50;;;16.20;99.90;;;;;;5083372;28;20068;-75
2022/05/31 07:25:26;;;;;;;19.17;8.07;;;16.10;99.90;;;;;;5065680;28;20049;-75
2022/05/31 07:28:00;;;;;;;13.98;7.72;;;15.70;99.90;;;;;;5070807;28;20052;-74
2022/05/31 07:30:26;;;;;;;17.60;8.70;;;16.10;99.90;;;;;;5071873;28;20044;-75
2022/05/31 07:32:52;;;;;;;14.93;8.52;;;16.40;99.90;;;;;;5071616;28;20406;-75
2022/05/31 07:35:20;;;;;;;16.50;7.20;;;16.80;99.90;;;;;;5072101;28;20041;-75
2022/05/31 07:37:46;;;;;;;13.93;7.07;;;17.20;99.40;;;;;;5071709;28;20029;-75
2022/05/31 07:40:16;;;;;;;16.70;7.47;;;17.30;98.20;;;;;;5071962;28;20102;-75
2022/05/31 07:42:41;;;;;;;15.30;8.05;;;17.20;99.90;;;;;;5071832;28;20476;-75
2022/05/31 07:45:08;;;;;;;17.98;7.78;;;16.90;99.30;;;;;;5071816;28;20481;-75
2022/05/31 07:47:34;;;;;;;20.50;8.48;;;16.90;99.90;;;;;;5071429;28;20370;-75
2022/05/31 07:50:00;;;;;;;19.63;7.72;;;17.00;99.90;;;;;;5076228;28;20039;-75
2022/05/31 07:52:47;;;;;;;16.23;7.30;;;17.10;99.30;;;;;;5071412;28;20033;-75
2022/05/31 07:55:41;;;;;;;13.43;8.25;;;17.10;98.10;;;;;;5071975;28;20119;-75
2022/05/31 07:58:38;;;;;;;14.95;7.70;;;17.20;98.70;;;;;;5062264;28;20123;-75
2022/05/31 08:01:25;;;;;;;19.45;8.05;;;17.00;99.10;;;;;;5075017;28;20101;-75
2022/05/31 08:03:53;;;;;;;16.83;7.70;;;17.00;99.20;;;;;;5072884;28;20473;-75
2022/05/31 08:06:23;;;;;;;16.95;7.85;;;16.90;97.90;;;;;;5072854;28;20043;-75
2022/05/31 08:08:49;;;;;;;13.43;7.82;;;17.00;97.50;;;;;;5071723;28;20047;-75
2022/05/31 08:11:22;;;;;;;11.52;7.60;;;17.30;97.20;;;;;;5073536;28;20104;-75
2022/05/31 08:13:48;;;;;;;21.65;8.75;;;17.50;96.60;;;;;;5096414;28;20074;-75
2022/05/31 08:16:16;;;;;;;16.90;8.02;;;18.00;97.80;;;;;;5103366;28;20358;-75
2022/05/31 08:18:43;;;;;;;14.60;8.27;;;18.00;97.70;;;;;;5092807;28;20074;-75
2022/05/31 08:21:11;;;;;;;13.15;8.18;;;18.00;96.90;;;;;;5092917;28;20035;-75
2022/05/31 08:23:38;;;;;;;14.93;7.65;;;18.10;96.80;;;;;;5092945;28;20525;-75
2022/05/31 08:26:05;;;;;;;17.10;8.13;;;18.20;96.70;;;;;;5091577;28;20093;-76
2022/05/31 08:28:31;;;;;;;18.42;7.70;;;18.10;96.00;;;;;;5092788;28;20035;-75
2022/05/31 08:31:01;;;;;;;13.60;7.50;;;17.90;96.50;;;;;;5092540;28;20141;-75
2022/05/31 08:33:27;;;;;;;19.23;7.78;;;18.10;95.30;;;;;;5092696;28;20395;-75
2022/05/31 08:35:54;;;;;;;12.00;6.57;;;18.10;95.30;;;;;;5091235;28;20032;-75
2022/05/31 08:38:20;;;;;;;10.25;4.60;;;18.30;94.30;;;;;;5091368;28;20028;-76
2022/05/31 08:41:24;;;;;;;10.20;4.72;;;18.40;93.30;;;;;;5092831;28;20032;-75
2022/05/31 08:43:50;;;;;;;9.00;4.25;;;18.40;92.10;;;;;;5078951;28;20029;-76
2022/05/31 08:46:31;;;;;;;12.02;7.03;;;18.60;92.80;;;;;;5089420;28;20020;-75
2022/05/31 08:49:09;;;;;;;12.55;6.28;;;18.80;92.80;;;;;;5088467;28;20051;-76
2022/05/31 08:51:52;;;;;;;11.73;6.57;;;18.70;92.80;;;;;;5090133;28;20047;-75
2022/05/31 08:57:19;;;;;;;7.90;3.45;;;18.80;92.90;;;;;;5090960;28;20114;-75
2022/05/31 08:59:58;;;;;;;12.50;5.53;;;18.90;90.00;;;;;;5090861;28;20059;-75
2022/05/31 09:02:34;;;;;;;12.65;5.95;;;19.00;91.70;;;;;;5092553;28;20028;-76
2022/05/31 09:05:08;;;;;;;11.60;6.82;;;19.50;92.30;;;;;;5091994;28;20093;-76
2022/05/31 09:07:42;;;;;;;11.98;7.13;;;19.20;92.40;;;;;;5093519;28;20063;-75
2022/05/31 09:10:42;;;;;;;14.05;6.60;;;19.10;92.70;;;;;;5096287;28;20028;-76
2022/05/31 09:13:15;;;;;;;13.30;6.80;;;19.10;92.60;;;;;;5079303;28;20040;-76
2022/05/31 09:15:44;;;;;;;7.63;4.57;;;18.90;92.60;;;;;;5096059;28;20388;-75
2022/05/31 09:18:38;;;;;;;10.95;4.80;;;18.50;91.10;;;;;;5096129;28;20020;-75
2022/05/31 09:21:13;;;;;;;10.45;3.67;;;18.80;91.60;;;;;;5094970;28;20028;-75
2022/05/31 09:23:39;;;;;;;11.52;3.60;;;18.40;90.70;;;;;;5096262;28;20032;-76
2022/05/31 09:26:08;;;;;;;5.95;3.05;;;18.40;90.40;;;;;;5095033;28;20111;-76
2022/05/31 09:29:00;;;;;;;5.80;3.40;;;18.70;90.70;;;;;;5095686;28;20499;-76
2022/05/31 09:31:59;;;;;;;5.93;3.25;;;19.00;90.50;;;;;;5093204;28;20042;-75
2022/05/31 09:34:52;;;;;;;5.75;3.28;;;19.10;89.00;;;;;;5094511;28;20032;-76
2022/05/31 09:37:56;;;;;;;6.50;3.65;;;19.20;90.10;;;;;;5096359;28;20492;-76
2022/05/31 09:40:36;;;;;;;7.85;3.70;;;19.10;88.80;;;;;;5084798;28;20400;-76
2022/05/31 09:43:35;;;;;;;11.35;4.28;;;19.10;90.70;;;;;;5095374;28;20016;-75
2022/05/31 09:46:10;;;;;;;9.38;4.22;;;18.80;89.50;;;;;;5075361;28;20052;-76
2022/05/31 09:48:52;;;;;;;12.30;4.70;;;18.60;91.10;;;;;;5095505;28;20052;-75
2022/05/31 09:51:41;;;;;;;10.00;5.18;;;17.90;91.00;;;;;;5095447;28;20028;-75
2022/05/31 09:57:06;;;;;;;11.90;6.28;;;17.40;94.10;;;;;;5083059;28;20036;-75
2022/05/31 09:59:59;;;;;;;13.23;5.95;;;17.30;95.10;;;;;;5094699;28;20054;-75
2022/05/31 10:02:44;;;;;;;14.38;5.78;;;17.20;96.20;;;;;;5095428;28;20120;-75
2022/05/31 10:05:21;;;;;;;17.42;5.05;;;17.10;97.70;;;;;;5093617;28;20063;-75
2022/05/31 10:07:48;;;;;;;11.80;4.68;;;17.20;97.00;;;;;;5095447;28;20032;-76
2022/05/31 10:10:31;;;;;;;8.73;4.43;;;17.50;95.80;;;;;;5094169;28;20042;-76
2022/05/31 10:13:01;;;;;;;10.50;4.28;;;17.90;92.70;;;;;;5083894;28;20100;-75
2022/05/31 10:15:39;;;;;;;7.25;4.45;;;18.20;98.30;;;;;;5095025;28;20519;-76
2022/05/31 10:18:09;;;;;;;10.75;4.55;;;18.20;95.40;;;;;;5093980;28;20059;-76
2022/05/31 10:20:37;;;;;;;7.30;4.10;;;17.90;92.90;;;;;;5092803;28;20040;-75
2022/05/31 10:23:13;;;;;;;10.02;3.17;;;18.30;92.60;;;;;;5095109;28;20460;-76
2022/05/31 10:25:59;;;;;;;8.50;3.15;;;18.70;91.20;;;;;;5094929;28;20046;-76
2022/05/31 10:29:00;;;;;;;8.73;3.03;;;19.30;90.00;;;;;;5094669;28;20479;-75
2022/05/31 10:31:50;;;;;;;9.60;3.35;;;19.10;89.90;;;;;;5084859;28;20166;-76
2022/05/31 10:34:22;;;;;;;5.72;3.13;;;19.50;89.90;;;;;;5094701;28;20050;-76
2022/05/31 10:36:54;;;;;;;9.27;3.72;;;19.80;89.40;;;;;;5094843;28;20028;-75
2022/05/31 10:39:29;;;;;;;9.05;3.67;;;19.70;88.00;;;;;;5094519;28;20047;-75
2022/05/31 10:41:59;;;;;;;11.85;3.80;;;19.80;86.80;;;;;;5093179;28;20036;-76
2022/05/31 10:44:32;;;;;;;9.98;3.60;;;19.30;90.20;;;;;;5093151;28;20549;-75
2022/05/31 10:47:16;;;;;;;10.00;4.22;;;19.30;90.40;;;;;;5094622;28;20032;-75
2022/05/31 10:49:44;;;;;;;9.82;3.47;;;19.30;90.50;;;;;;5085796;28;20027;-75
2022/05/31 10:52:37;;;;;;;9.30;3.17;;;19.30;90.00;;;;;;5094448;28;20028;-75
2022/05/31 10:55:24;;;;;;;9.88;2.65;;;19.00;88.70;;;;;;5094040;28;20464;-75
2022/05/31 10:58:12;;;;;;;8.55;3.05;;;18.70;89.00;;;;;;5093100;28;20043;-75
2022/05/31 11:00:58;;;;;;;7.13;2.55;;;18.90;87.80;;;;;;5094114;28;20085;-75
2022/05/31 11:03:44;;;;;;;6.00;2.55;;;19.00;89.40;;;;;;5093859;28;20039;-76
2022/05/31 11:06:36;;;;;;;5.45;2.65;;;19.20;90.20;;;;;;5094180;28;20107;-76
2022/05/31 11:12:06;;;;;;;8.63;2.40;;;20.00;89.00;;;;;;5078017;28;20396;-75
2022/05/31 11:14:44;;;;;;;7.32;2.25;;;19.50;87.60;;;;;;5094099;28;20077;-76
2022/05/31 11:17:35;;;;;;;7.13;2.45;;;19.60;85.90;;;;;;5094067;28;20429;-75
2022/05/31 11:20:23;;;;;;;8.50;2.30;;;19.20;86.60;;;;;;5093795;28;20042;-76
2022/05/31 11:23:10;;;;;;;5.70;1.88;;;19.20;85.90;;;;;;5093921;28;20020;-76
2022/05/31 11:25:44;;;;;;;4.30;2.33;;;19.00;87.50;;;;;;5093251;28;20036;-75
2022/05/31 11:28:13;;;;;;;6.07;2.00;;;18.70;87.30;;;;;;5094011;28;20109;-75
2022/05/31 11:31:13;;;;;;;7.80;2.15;;;19.00;86.90;;;;;;5092030;28;20408;-76
2022/05/31 11:33:51;;;;;;;14.50;2.50;;;19.00;86.90;;;;;;5093651;28;20028;-76
2022/05/31 11:36:32;;;;;;;9.30;2.13;;;19.50;86.80;;;;;;5093587;28;20059;-76
2022/05/31 11:39:19;;;;;;;6.23;2.07;;;20.10;86.60;;;;;;5093508;28;20032;-75
2022/05/31 11:42:19;;;;;;;13.30;2.90;;;20.80;84.90;;;;;;5081194;28;20297;-76
2022/05/31 11:44:55;;;;;;;11.15;2.15;;;21.10;81.30;;;;;;5086648;28;20054;-75
2022/05/31 11:47:31;;;;;;;4.22;2.10;;;20.70;80.00;;;;;;5093390;28;20368;-75
2022/05/31 11:50:44;;;;;;;3.58;2.17;;;20.80;80.00;;;;;;5086244;28;20024;-75
2022/05/31 11:53:37;;;;;;;6.43;2.05;;;20.60;82.10;;;;;;5070650;28;20033;-75
2022/05/31 11:56:23;;;;;;;5.38;2.22;;;20.30;82.90;;;;;;5054064;28;20526;-75
2022/05/31 11:59:21;;;;;;;8.60;2.90;;;20.90;82.70;;;;;;5081033;28;20036;-75
2022/05/31 12:02:22;;;;;;;2.92;2.08;;;21.50;81.30;;;;;;5091606;28;20040;-76
2022/05/31 12:04:57;;;;;;;6.85;2.10;;;21.20;79.10;;;;;;5083980;28;20055;-75
2022/05/31 12:07:26;;;;;;;4.07;1.73;;;21.10;78.90;;;;;;5092938;28;20044;-76
2022/05/31 12:10:11;;;;;;;4.80;2.10;;;21.40;80.50;;;;;;5085853;28;20040;-74
2022/05/31 12:12:39;;;;;;;5.72;1.88;;;21.10;77.80;;;;;;5073041;28;20060;-73
2022/05/31 12:15:14;;;;;;;3.67;1.85;;;19.80;77.00;;;;;;5079052;28;20060;-73
2022/05/31 12:17:47;;;;;;;6.63;1.90;;;19.80;78.50;;;;;;5077386;28;20274;-74
2022/05/31 12:20:38;;;;;;;6.50;2.10;;;20.00;76.40;;;;;;5071351;28;20036;-74
2022/05/31 12:23:18;;;;;;;5.03;2.00;;;20.20;77.80;;;;;;5072218;28;20493;-74
2022/05/31 12:25:48;;;;;;;6.90;2.35;;;20.40;79.20;;;;;;5081282;28;20050;-74
2022/05/31 12:28:18;;;;;;;6.28;1.90;;;20.60;76.30;;;;;;5071141;28;20110;-74
2022/05/31 12:30:52;;;;;;;4.35;2.15;;;20.70;78.00;;;;;;5074174;28;20054;-74
2022/05/31 12:33:50;;;;;;;3.42;2.55;;;20.70;78.80;;;;;;5068176;28;20105;-74
2022/05/31 12:36:24;;;;;;;6.88;2.70;;;20.40;77.30;;;;;;5081662;28;20046;-73
2022/05/31 12:39:12;;;;;;;7.30;2.35;;;20.60;78.70;;;;;;5079449;28;20457;-74
2022/05/31 12:41:45;;;;;;;6.60;2.65;;;20.20;78.60;;;;;;5083215;28;20037;-74
2022/05/31 12:44:34;;;;;;;5.90;2.90;;;20.50;78.70;;;;;;5078790;28;20037;-74
2022/05/31 12:47:32;;;;;;;7.57;2.83;;;20.50;79.80;;;;;;5076132;28;20029;-74
2022/05/31 12:50:04;;;;;;;7.30;2.72;;;21.20;77.80;;;;;;5094042;28;20036;-74
2022/05/31 12:52:48;;;;;;;6.13;3.00;;;21.10;76.30;;;;;;5089938;28;20020;-74
2022/05/31 12:55:36;;;;;;;7.55;2.60;;;20.90;76.60;;;;;;5076927;28;20035;-74
2022/05/31 12:58:30;;;;;;;5.47;2.40;;;21.20;78.00;;;;;;5075061;28;20035;-74
2022/05/31 13:01:26;;;;;;;5.35;3.08;;;21.50;77.50;;;;;;5093837;28;20514;-74
2022/05/31 13:03:52;;;;;;;6.13;1.88;;;21.10;74.00;;;;;;5091401;28;20036;-74
2022/05/31 13:06:56;;;;;;;5.10;2.00;;;21.10;75.40;;;;;;5082051;28;20033;-74
2022/05/31 13:09:24;;;;;;;4.22;1.90;;;20.50;74.40;;;;;;5073855;28;20469;-74
2022/05/31 13:20:59;;;;;;;7.90;1.70;;;22.00;76.80;;;;;;5072538;28;20036;-75
2022/05/31 13:23:34;;;;;;;6.35;2.03;;;23.00;75.40;;;;;;5079218;28;20032;-74
2022/05/31 13:26:14;;;;;;;5.80;2.05;;;22.80;73.10;;;;;;5080084;28;20100;-74
2022/05/31 13:28:56;;;;;;;6.18;2.08;;;22.40;73.70;;;;;;5104767;28;20447;-74
2022/05/31 13:31:25;;;;;;;4.53;2.00;;;22.50;74.40;;;;;;5087513;28;20036;-74
2022/05/31 13:33:58;;;;;;;3.08;1.95;;;22.80;73.60;;;;;;5084619;28;20036;-74
2022/05/31 13:36:30;;;;;;;2.30;1.92;;;22.90;73.30;;;;;;5073694;28;20472;-74
2022/05/31 13:39:04;;;;;;;5.47;2.08;;;23.10;73.20;;;;;;5088759;28;20036;-73
2022/05/31 13:41:31;;;;;;;5.72;2.45;;;24.10;72.10;;;;;;5089749;28;20043;-75
2022/05/31 13:44:02;;;;;;;10.90;2.33;;;23.50;71.60;;;;;;5083966;28;20532;-73
2022/05/31 13:46:45;;;;;;;16.52;2.92;;;23.00;72.50;;;;;;5075509;28;20024;-73
2022/05/31 13:49:14;;;;;;;4.10;2.17;;;23.30;73.70;;;;;;5087852;28;20082;-74